createdAt,value
2022-07-25T00:01:46.399Z,17.60
2022-07-25T00:04:18.793Z,17.53
2022-07-25T00:06:49.903Z,17.50
2022-07-25T00:09:20.261Z,17.48
2022-07-25T00:11:50.461Z,17.48
2022-07-25T00:14:20.702Z,17.44
2022-07-25T00:16:51.186Z,17.40
2022-07-25T00:19:21.501Z,17.31
2022-07-25T00:21:53.098Z,17.26
2022-07-25T00:24:23.345Z,17.24
2022-07-25T00:26:53.422Z,17.20
2022-07-25T00:29:24.279Z,17.16
2022-07-25T00:31:54.990Z,17.10
2022-07-25T00:34:25.354Z,17.03
2022-07-25T00:36:55.419Z,17.02
2022-07-25T00:39:25.686Z,16.99
2022-07-25T00:41:56.001Z,16.96
2022-07-25T00:44:32.022Z,16.93
2022-07-25T00:47:02.917Z,16.90
2022-07-25T00:49:33.142Z,16.86
2022-07-25T00:52:03.286Z,16.83
2022-07-25T00:54:34.156Z,16.82
2022-07-25T00:57:04.582Z,16.78
2022-07-25T00:59:34.710Z,16.76
2022-07-25T01:02:05.364Z,16.71
2022-07-25T01:04:36.128Z,16.68
2022-07-25T01:07:07.338Z,16.68
2022-07-25T01:09:38.240Z,16.71
2022-07-25T01:12:08.891Z,16.71
2022-07-25T01:14:41.118Z,16.69
2022-07-25T01:17:11.874Z,16.59
2022-07-25T01:19:42.298Z,16.54
2022-07-25T01:22:12.257Z,16.52
2022-07-25T01:24:42.953Z,16.47
2022-07-25T01:27:17.411Z,16.47
2022-07-25T01:29:47.923Z,16.44
2022-07-25T01:32:18.110Z,16.38
2022-07-25T01:34:48.426Z,16.32
2022-07-25T01:37:19.181Z,16.34
2022-07-25T01:39:49.505Z,16.25
2022-07-25T01:42:19.512Z,16.18
2022-07-25T01:44:50.244Z,16.13
2022-07-25T01:47:20.973Z,16.11
2022-07-25T01:49:51.427Z,16.03
2022-07-25T01:52:21.690Z,16.01
2022-07-25T01:54:51.909Z,15.99
2022-07-25T01:57:22.215Z,15.94
2022-07-25T01:59:55.107Z,15.90
2022-07-25T02:02:25.519Z,15.91
2022-07-25T02:04:56.014Z,15.87
2022-07-25T02:07:26.646Z,15.86
2022-07-25T02:09:56.980Z,15.87
2022-07-25T02:12:28.185Z,15.85
2022-07-25T02:14:58.450Z,15.83
2022-07-25T02:17:28.694Z,15.78
2022-07-25T02:19:59.257Z,15.70
2022-07-25T02:22:29.787Z,15.62
2022-07-25T02:25:00.239Z,15.55
2022-07-25T02:27:30.298Z,15.46
2022-07-25T02:30:00.752Z,15.43
2022-07-25T02:32:31.168Z,15.45
2022-07-25T02:35:01.515Z,15.43
2022-07-25T02:37:32.039Z,15.43
2022-07-25T02:40:02.596Z,15.42
2022-07-25T02:42:32.507Z,15.41
2022-07-25T02:45:03.596Z,15.39
2022-07-25T02:47:34.176Z,15.34
2022-07-25T02:50:04.437Z,15.24
2022-07-25T02:52:34.394Z,15.18
2022-07-25T02:55:09.466Z,15.12
2022-07-25T02:57:40.494Z,15.11
2022-07-25T03:00:11.562Z,15.05
2022-07-25T03:02:42.193Z,15.05
2022-07-25T03:05:15.697Z,15.05
2022-07-25T03:07:47.384Z,15.04
2022-07-25T03:10:17.712Z,15.01
2022-07-25T03:12:47.885Z,15.07
2022-07-25T03:15:18.562Z,15.04
2022-07-25T03:17:48.924Z,15.04
2022-07-25T03:20:19.969Z,15.00
2022-07-25T03:22:50.321Z,14.95
2022-07-25T03:25:21.672Z,14.90
2022-07-25T03:27:52.965Z,14.85
2022-07-25T03:30:23.367Z,14.83
2022-07-25T03:32:53.415Z,14.79
2022-07-25T03:35:24.211Z,14.73
2022-07-25T03:37:55.387Z,14.71
2022-07-25T03:40:25.620Z,14.67
2022-07-25T03:42:55.568Z,14.61
2022-07-25T03:45:25.813Z,14.61
2022-07-25T03:47:56.901Z,14.57
2022-07-25T03:50:27.706Z,14.53
2022-07-25T03:52:57.685Z,14.49
2022-07-25T03:55:27.881Z,14.44
2022-07-25T03:57:58.423Z,14.40
2022-07-25T04:00:28.956Z,14.33
2022-07-25T04:03:00.389Z,14.32
2022-07-25T04:05:31.407Z,14.32
2022-07-25T04:08:01.952Z,14.26
2022-07-25T04:10:32.324Z,14.16
2022-07-25T04:13:02.660Z,14.11
2022-07-25T04:15:32.822Z,14.08
2022-07-25T04:18:04.068Z,14.11
2022-07-25T04:20:38.722Z,14.09
2022-07-25T04:23:09.317Z,14.12
2022-07-25T04:25:39.374Z,14.09
2022-07-25T04:28:09.664Z,14.11
2022-07-25T04:30:39.985Z,14.08
2022-07-25T04:33:11.488Z,14.06
2022-07-25T04:35:41.845Z,14.01
2022-07-25T04:38:12.390Z,14.05
2022-07-25T04:40:42.977Z,13.99
2022-07-25T04:43:13.525Z,13.88
2022-07-25T04:45:43.964Z,13.88
2022-07-25T04:48:14.169Z,13.85
2022-07-25T04:50:44.380Z,13.94
2022-07-25T04:53:15.011Z,13.89
2022-07-25T04:55:45.522Z,13.89
2022-07-25T04:58:15.469Z,13.89
2022-07-25T05:00:45.874Z,13.86
2022-07-25T05:03:16.538Z,13.85
2022-07-25T05:05:47.035Z,13.82
2022-07-25T05:08:17.157Z,13.78
2022-07-25T05:10:47.086Z,13.71
2022-07-25T05:13:17.854Z,13.70
2022-07-25T05:15:48.439Z,13.68
2022-07-25T05:18:18.689Z,13.61
2022-07-25T05:20:48.970Z,13.58
2022-07-25T05:23:19.014Z,13.64
2022-07-25T05:25:49.676Z,13.55
2022-07-25T05:28:21.752Z,13.50
2022-07-25T05:30:51.945Z,13.50
2022-07-25T05:33:22.119Z,13.47
2022-07-25T05:35:52.296Z,13.47
2022-07-25T05:38:23.204Z,13.46
2022-07-25T05:40:53.537Z,13.48
2022-07-25T05:43:23.454Z,13.43
2022-07-25T05:45:54.361Z,13.37
2022-07-25T05:48:25.038Z,13.33
2022-07-25T05:50:55.357Z,13.28
2022-07-25T05:53:25.384Z,13.23
2022-07-25T05:55:55.903Z,13.20
2022-07-25T05:58:29.897Z,13.20
2022-07-25T06:01:00.671Z,13.14
2022-07-25T06:03:30.807Z,13.10
2022-07-25T06:06:01.473Z,13.13
2022-07-25T06:08:32.284Z,13.10
2022-07-25T06:11:05.286Z,13.12
2022-07-25T06:13:36.488Z,13.07
2022-07-25T06:16:07.673Z,13.09
2022-07-25T06:18:38.352Z,12.99
2022-07-25T06:21:08.531Z,13.02
2022-07-25T06:23:39.021Z,13.02
2022-07-25T06:26:12.923Z,12.97
2022-07-25T06:28:43.778Z,12.93
2022-07-25T06:31:13.869Z,12.96
2022-07-25T06:33:44.415Z,12.99
2022-07-25T06:36:14.457Z,13.00
2022-07-25T06:38:45.113Z,12.99
2022-07-25T06:41:18.783Z,12.97
2022-07-25T06:43:49.024Z,12.92
2022-07-25T06:46:19.221Z,12.88
2022-07-25T06:48:49.513Z,12.82
2022-07-25T06:51:20.017Z,12.82
2022-07-25T06:53:50.712Z,12.75
2022-07-25T06:56:20.781Z,12.69
2022-07-25T06:58:50.934Z,12.66
2022-07-25T07:01:21.413Z,12.66
2022-07-25T07:03:52.207Z,12.66
2022-07-25T07:06:22.556Z,12.66
2022-07-25T07:08:52.776Z,12.63
2022-07-25T07:11:23.179Z,12.66
2022-07-25T07:13:53.507Z,12.61
2022-07-25T07:16:23.706Z,12.58
2022-07-25T07:18:53.784Z,12.55
2022-07-25T07:21:24.230Z,12.55
2022-07-25T07:23:54.502Z,12.56
2022-07-25T07:26:27.669Z,12.54
2022-07-25T07:28:57.669Z,12.48
2022-07-25T07:31:28.157Z,12.41
2022-07-25T07:34:00.584Z,12.42
2022-07-25T07:36:31.044Z,12.44
2022-07-25T07:39:01.255Z,12.44
2022-07-25T07:41:31.363Z,12.38
2022-07-25T07:44:02.149Z,12.40
2022-07-25T07:46:32.667Z,12.41
2022-07-25T07:49:02.809Z,12.38
2022-07-25T07:51:33.266Z,12.31
2022-07-25T07:54:21.856Z,12.28
2022-07-25T07:56:52.487Z,12.25
2022-07-25T07:59:23.174Z,12.24
2022-07-25T08:01:53.366Z,12.23
2022-07-25T08:04:23.422Z,12.14
2022-07-25T08:06:53.826Z,12.17
2022-07-25T08:09:26.946Z,12.17
2022-07-25T08:11:57.353Z,12.17
2022-07-25T08:14:27.354Z,12.17
2022-07-25T08:16:58.726Z,12.17
2022-07-25T08:19:29.259Z,12.16
2022-07-25T08:21:59.271Z,12.14
2022-07-25T08:24:29.417Z,12.13
2022-07-25T08:26:59.837Z,12.13
2022-07-25T08:29:30.705Z,12.10
2022-07-25T08:32:00.773Z,12.13
2022-07-25T08:34:30.911Z,12.08
2022-07-25T08:37:01.091Z,12.04
2022-07-25T08:39:31.127Z,12.01
2022-07-25T08:42:02.100Z,11.98
2022-07-25T08:44:40.389Z,11.98
2022-07-25T08:47:11.601Z,11.93
2022-07-25T08:49:43.701Z,11.91
2022-07-25T08:52:14.815Z,11.95
2022-07-25T08:54:49.185Z,11.97
2022-07-25T08:57:20.187Z,11.97
2022-07-25T08:59:50.670Z,11.97
2022-07-25T09:02:21.171Z,11.95
2022-07-25T09:04:52.102Z,11.90
2022-07-25T09:07:32.256Z,11.87
2022-07-25T09:10:21.545Z,11.89
2022-07-25T09:12:58.008Z,11.89
2022-07-25T09:15:38.742Z,11.90
2022-07-25T09:18:11.884Z,11.86
2022-07-25T09:20:54.441Z,11.87
2022-07-25T09:23:30.435Z,11.87
2022-07-25T09:26:10.952Z,11.84
2022-07-25T09:28:49.791Z,11.82
2022-07-25T09:31:21.102Z,11.79
2022-07-25T09:33:57.646Z,11.76
2022-07-25T09:36:28.107Z,11.74
2022-07-25T09:39:02.101Z,11.76
2022-07-25T09:41:40.470Z,11.82
2022-07-25T09:44:24.413Z,11.77
2022-07-25T09:46:54.971Z,11.73
2022-07-25T09:49:25.633Z,11.69
2022-07-25T09:51:57.086Z,11.67
2022-07-25T09:54:27.662Z,11.67
2022-07-25T09:56:57.839Z,11.72
2022-07-25T09:59:28.121Z,11.72
2022-07-25T10:02:24.652Z,11.67
2022-07-25T10:05:13.760Z,11.65
2022-07-25T10:07:52.716Z,11.66
2022-07-25T10:10:27.258Z,11.66
2022-07-25T10:13:10.305Z,11.63
2022-07-25T10:15:53.215Z,11.66
2022-07-25T10:18:26.670Z,11.66
2022-07-25T10:21:25.662Z,11.65
2022-07-25T10:24:16.296Z,11.66
2022-07-25T10:26:54.936Z,11.61
2022-07-25T10:29:36.509Z,11.66
2022-07-25T10:32:10.855Z,11.69
2022-07-25T10:34:42.010Z,11.72
2022-07-25T10:37:20.318Z,11.73
2022-07-25T10:39:50.616Z,11.74
2022-07-25T10:42:24.102Z,11.82
2022-07-25T10:45:00.478Z,11.86
2022-07-25T10:47:30.787Z,11.87
2022-07-25T10:50:21.956Z,11.86
2022-07-25T10:53:02.942Z,11.89
2022-07-25T10:55:38.492Z,11.94
2022-07-25T10:58:17.691Z,11.94
2022-07-25T11:00:48.534Z,11.97
2022-07-25T11:03:18.920Z,12.03
2022-07-25T11:05:50.114Z,12.04
2022-07-25T11:08:22.652Z,12.25
2022-07-25T11:10:54.514Z,12.65
2022-07-25T11:13:24.739Z,12.95
2022-07-25T11:15:59.576Z,13.24
2022-07-25T11:18:41.789Z,13.57
2022-07-25T11:21:12.289Z,13.79
2022-07-25T11:23:42.502Z,14.08
2022-07-25T11:26:14.700Z,14.32
2022-07-25T11:28:52.143Z,14.55
2022-07-25T11:31:24.764Z,14.83
2022-07-25T11:33:55.131Z,15.11
2022-07-25T11:36:25.846Z,15.25
2022-07-25T11:38:56.587Z,15.41
2022-07-25T11:41:32.976Z,15.58
2022-07-25T11:44:03.784Z,15.79
2022-07-25T11:46:46.693Z,16.04
2022-07-25T11:49:17.564Z,16.30
2022-07-25T11:51:48.311Z,16.58
2022-07-25T11:54:18.755Z,16.72
2022-07-25T11:56:49.182Z,16.75
2022-07-25T11:59:19.659Z,16.80
2022-07-25T12:01:50.248Z,16.98
2022-07-25T12:04:22.108Z,16.83
2022-07-25T12:06:52.818Z,16.71
2022-07-25T12:09:23.858Z,16.92
2022-07-25T12:12:15.130Z,16.98
2022-07-25T12:14:46.016Z,17.08
2022-07-25T12:17:16.754Z,17.19
2022-07-25T12:19:48.712Z,17.29
2022-07-25T12:22:19.247Z,17.78
2022-07-25T12:24:49.290Z,18.12
2022-07-25T12:27:19.506Z,18.39
2022-07-25T12:29:51.390Z,18.61
2022-07-25T12:32:22.027Z,18.73
2022-07-25T12:34:52.243Z,18.88
2022-07-25T12:37:23.377Z,19.11
2022-07-25T12:39:55.204Z,19.52
2022-07-25T12:42:26.270Z,19.38
2022-07-25T12:44:57.803Z,19.51
2022-07-25T12:47:30.174Z,19.54
2022-07-25T12:50:00.783Z,19.63
2022-07-25T12:52:31.471Z,19.98
2022-07-25T12:55:01.820Z,20.16
2022-07-25T12:57:31.785Z,20.67
2022-07-25T13:00:02.356Z,20.65
2022-07-25T13:02:32.880Z,20.72
2022-07-25T13:05:03.381Z,20.68
2022-07-25T13:07:35.412Z,20.86
2022-07-25T13:10:07.715Z,21.13
2022-07-25T13:12:38.998Z,21.39
2022-07-25T13:15:10.329Z,21.58
2022-07-25T13:17:41.662Z,21.67
2022-07-25T13:20:13.028Z,21.77
2022-07-25T13:22:44.047Z,21.90
2022-07-25T13:25:15.154Z,21.90
2022-07-25T13:27:45.503Z,22.18
2022-07-25T13:30:15.751Z,22.60
2022-07-25T13:32:46.334Z,22.55
2022-07-25T13:35:20.488Z,22.51
2022-07-25T13:37:51.078Z,22.69
2022-07-25T13:40:21.211Z,22.76
2022-07-25T13:42:51.929Z,22.86
2022-07-25T13:45:23.240Z,23.17
2022-07-25T13:48:12.158Z,23.37
2022-07-25T13:50:44.460Z,23.44
2022-07-25T13:53:15.664Z,23.73
2022-07-25T13:55:46.901Z,23.89
2022-07-25T13:58:18.258Z,24.02
2022-07-25T14:00:48.627Z,24.10
2022-07-25T14:03:19.295Z,24.17
2022-07-25T14:05:50.202Z,24.33
2022-07-25T14:08:20.893Z,24.67
2022-07-25T14:10:51.331Z,24.91
2022-07-25T14:13:21.784Z,25.29
2022-07-25T14:15:52.318Z,25.62
2022-07-25T14:18:22.710Z,25.94
2022-07-25T14:20:53.548Z,26.08
2022-07-25T14:23:28.138Z,26.27
2022-07-25T14:26:00.771Z,26.71
2022-07-25T14:28:31.856Z,26.73
2022-07-25T14:31:02.093Z,26.80
2022-07-25T14:33:32.496Z,26.73
2022-07-25T14:36:03.148Z,26.71
2022-07-25T14:38:33.480Z,27.13
2022-07-25T14:41:05.721Z,27.57
2022-07-25T14:43:39.608Z,27.81
2022-07-25T14:46:10.628Z,27.75
2022-07-25T14:48:41.409Z,27.94
2022-07-25T14:51:11.513Z,27.89
2022-07-25T14:53:42.745Z,27.95
2022-07-25T14:56:14.500Z,28.12
2022-07-25T14:58:44.338Z,28.50
2022-07-25T15:01:14.357Z,28.54
2022-07-25T15:03:44.501Z,28.67
2022-07-25T15:06:18.763Z,28.83
2022-07-25T15:08:49.498Z,29.67
2022-07-25T15:11:20.524Z,29.96
2022-07-25T15:13:51.800Z,29.84
2022-07-25T15:16:22.857Z,29.56
2022-07-25T15:19:15.031Z,29.66
2022-07-25T15:21:43.879Z,29.51
2022-07-25T15:24:15.369Z,29.79
2022-07-25T15:26:45.971Z,29.59
2022-07-25T15:29:21.702Z,29.62
2022-07-25T15:31:52.153Z,29.77
2022-07-25T15:34:22.166Z,29.70
2022-07-25T15:36:53.503Z,29.76
2022-07-25T15:39:24.566Z,30.07
2022-07-25T15:41:55.903Z,30.06
2022-07-25T15:44:26.829Z,29.87
2022-07-25T15:46:58.063Z,30.20
2022-07-25T15:49:28.731Z,30.35
2022-07-25T15:51:59.275Z,30.49
2022-07-25T15:54:29.733Z,30.55
2022-07-25T15:56:59.902Z,30.86
2022-07-25T15:59:30.804Z,31.04
2022-07-25T16:02:01.772Z,30.42
2022-07-25T16:04:32.080Z,30.07
2022-07-25T16:07:02.092Z,30.10
2022-07-25T16:09:32.324Z,30.09
2022-07-25T16:12:05.163Z,30.38
2022-07-25T16:14:35.907Z,30.37
2022-07-25T16:17:06.954Z,30.67
2022-07-25T16:19:37.213Z,30.76
2022-07-25T16:22:07.656Z,31.12
2022-07-25T16:24:41.608Z,30.89
2022-07-25T16:27:12.077Z,31.03
2022-07-25T16:29:42.727Z,30.85
2022-07-25T16:32:14.230Z,31.16
2022-07-25T16:34:45.091Z,30.92
2022-07-25T16:37:15.503Z,30.85
2022-07-25T16:39:45.569Z,30.89
2022-07-25T16:42:16.113Z,30.83
2022-07-25T16:44:48.997Z,31.16
2022-07-25T16:47:19.179Z,31.50
2022-07-25T16:49:49.264Z,31.25
2022-07-25T16:52:19.865Z,30.95
2022-07-25T16:54:51.411Z,30.82
2022-07-25T16:57:23.769Z,31.09
2022-07-25T16:59:55.527Z,30.91
2022-07-25T17:02:29.522Z,30.99
2022-07-25T17:05:01.158Z,30.98
2022-07-25T17:07:32.051Z,31.18
2022-07-25T17:10:02.392Z,31.76
2022-07-25T17:12:32.460Z,31.50
2022-07-25T17:15:03.096Z,31.39
2022-07-25T17:17:33.641Z,31.43
2022-07-25T17:20:04.387Z,31.22
2022-07-25T17:22:34.449Z,31.29
2022-07-25T17:25:05.203Z,31.13
2022-07-25T17:27:39.152Z,31.15
2022-07-25T17:30:10.121Z,31.34
2022-07-25T17:32:41.184Z,31.60
2022-07-25T17:35:12.031Z,31.51
2022-07-25T17:37:43.312Z,31.51
2022-07-25T17:40:14.398Z,31.60
2022-07-25T17:42:45.964Z,31.85
2022-07-25T17:45:17.986Z,32.28
2022-07-25T17:47:48.665Z,32.43
2022-07-25T17:50:18.929Z,32.21
2022-07-25T17:52:49.402Z,32.04
2022-07-25T17:55:20.000Z,31.71
2022-07-25T17:57:54.329Z,31.84
2022-07-25T18:00:25.378Z,31.94
2022-07-25T18:02:56.088Z,31.95
2022-07-25T18:05:26.930Z,31.88
2022-07-25T18:07:58.063Z,31.85
2022-07-25T18:10:28.493Z,31.51
2022-07-25T18:13:01.469Z,31.34
2022-07-25T18:15:31.921Z,31.51
2022-07-25T18:18:02.686Z,31.36
2022-07-25T18:20:32.971Z,31.57
2022-07-25T18:23:03.265Z,31.36
2022-07-25T18:25:33.760Z,31.25
2022-07-25T18:28:04.451Z,31.08
2022-07-25T18:30:34.555Z,30.91
2022-07-25T18:33:05.206Z,30.83
2022-07-25T18:35:35.290Z,30.41
2022-07-25T18:38:05.839Z,30.40
2022-07-25T18:40:36.071Z,30.52
2022-07-25T18:43:06.649Z,30.28
2022-07-25T18:45:39.563Z,30.40
2022-07-25T18:48:09.753Z,30.65
2022-07-25T18:50:40.341Z,30.44
2022-07-25T18:53:11.497Z,30.25
2022-07-25T18:55:42.640Z,30.40
2022-07-25T18:58:17.059Z,30.42
2022-07-25T19:00:47.605Z,30.42
2022-07-25T19:03:18.120Z,29.94
2022-07-25T19:05:48.367Z,29.73
2022-07-25T19:08:19.052Z,29.65
2022-07-25T19:10:49.874Z,29.84
2022-07-25T19:13:46.738Z,29.59
2022-07-25T19:16:14.842Z,29.45
2022-07-25T19:18:45.370Z,29.31
2022-07-25T19:21:16.650Z,29.24
2022-07-25T19:23:51.218Z,28.98
2022-07-25T19:26:22.588Z,28.97
2022-07-25T19:28:53.453Z,28.81
2022-07-25T19:31:23.913Z,28.50
2022-07-25T19:33:54.789Z,28.36
2022-07-25T19:36:24.801Z,28.35
2022-07-25T19:38:54.924Z,28.46
2022-07-25T19:41:26.093Z,28.33
2022-07-25T19:43:56.661Z,28.25
2022-07-25T19:46:30.978Z,28.20
2022-07-25T19:49:02.613Z,28.20
2022-07-25T19:51:34.244Z,28.16
2022-07-25T19:54:05.566Z,27.89
2022-07-25T19:56:36.660Z,27.71
2022-07-25T19:59:06.817Z,27.64
2022-07-25T20:01:37.264Z,27.31
2022-07-25T20:04:10.023Z,27.17
2022-07-25T20:06:40.966Z,27.13
2022-07-25T20:09:11.400Z,26.87
2022-07-25T20:11:42.268Z,26.82
2022-07-25T20:14:12.643Z,26.56
2022-07-25T20:16:43.626Z,26.28
2022-07-25T20:19:14.498Z,26.05
2022-07-25T20:21:45.630Z,25.94
2022-07-25T20:24:21.175Z,25.79
2022-07-25T20:26:52.122Z,25.58
2022-07-25T20:29:23.037Z,25.45
2022-07-25T20:31:55.151Z,25.19
2022-07-25T20:34:25.691Z,24.91
2022-07-25T20:36:56.104Z,24.70
2022-07-25T20:39:28.790Z,24.47
2022-07-25T20:41:59.116Z,24.21
2022-07-25T20:44:29.537Z,23.99
2022-07-25T20:47:00.575Z,23.73
2022-07-25T20:49:30.833Z,23.47
2022-07-25T20:52:01.367Z,23.24
2022-07-25T20:54:31.354Z,23.07
2022-07-25T20:57:02.025Z,22.94
2022-07-25T20:59:33.514Z,22.76
2022-07-25T21:02:04.330Z,22.59
2022-07-25T21:04:35.794Z,22.46
2022-07-25T21:07:06.420Z,22.35
2022-07-25T21:09:38.054Z,22.24
2022-07-25T21:12:08.568Z,22.05
2022-07-25T21:14:38.826Z,21.81
2022-07-25T21:17:09.628Z,21.73
2022-07-25T21:19:40.055Z,21.53
2022-07-25T21:22:10.889Z,21.51
2022-07-25T21:24:41.184Z,21.33
2022-07-25T21:27:11.674Z,21.15
2022-07-25T21:29:42.409Z,21.16
2022-07-25T21:32:14.802Z,21.12
2022-07-25T21:34:46.887Z,21.03
2022-07-25T21:37:18.422Z,20.94
2022-07-25T21:39:49.154Z,20.74
2022-07-25T21:42:19.683Z,20.59
2022-07-25T21:44:49.791Z,20.54
2022-07-25T21:47:20.631Z,20.43
2022-07-25T21:50:09.425Z,20.33
2022-07-25T21:52:39.945Z,20.23
2022-07-25T21:55:10.464Z,20.14
2022-07-25T21:57:40.706Z,20.07
2022-07-25T22:00:13.831Z,19.97
2022-07-25T22:02:48.109Z,19.90
2022-07-25T22:05:19.654Z,19.80
2022-07-25T22:07:50.760Z,19.73
2022-07-25T22:10:23.234Z,19.70
2022-07-25T22:12:53.936Z,19.63
2022-07-25T22:15:24.363Z,19.63
2022-07-25T22:17:54.770Z,19.55
2022-07-25T22:20:25.121Z,19.44
2022-07-25T22:22:55.148Z,19.36
2022-07-25T22:25:25.541Z,19.34
2022-07-25T22:27:55.582Z,19.17
2022-07-25T22:30:26.247Z,19.00
2022-07-25T22:32:56.826Z,18.97
2022-07-25T22:35:27.313Z,18.97
2022-07-25T22:37:57.596Z,18.88
2022-07-25T22:40:28.569Z,18.83
2022-07-25T22:42:58.994Z,18.76
2022-07-25T22:45:29.398Z,18.71
2022-07-25T22:47:59.631Z,18.68
2022-07-25T22:50:30.227Z,18.67
2022-07-25T22:53:01.221Z,18.60
2022-07-25T22:55:31.415Z,18.46
2022-07-25T22:58:01.589Z,18.45
2022-07-25T23:00:32.348Z,18.38
2022-07-25T23:03:02.896Z,18.26
2022-07-25T23:05:36.205Z,18.18
2022-07-25T23:08:10.404Z,18.12
2022-07-25T23:10:40.857Z,18.08
2022-07-25T23:13:11.522Z,18.04
2022-07-25T23:15:50.549Z,17.98
2022-07-25T23:18:21.792Z,17.91
2022-07-25T23:20:52.299Z,17.89
2022-07-25T23:23:23.197Z,17.81
2022-07-25T23:25:53.635Z,17.74
2022-07-25T23:28:23.668Z,17.70
2022-07-25T23:30:54.519Z,17.70
2022-07-25T23:33:25.558Z,17.68
2022-07-25T23:35:56.698Z,17.67
2022-07-25T23:38:27.044Z,17.61
2022-07-25T23:40:58.079Z,17.54
2022-07-25T23:43:56.388Z,17.57
2022-07-25T23:46:20.304Z,17.57
2022-07-25T23:48:58.867Z,17.53
2022-07-25T23:51:29.562Z,17.50
2022-07-25T23:54:00.815Z,17.51
2022-07-25T23:56:31.296Z,17.51
2022-07-25T23:59:01.503Z,17.44
